Flight Track Log - Related Links

Times and Time Zones

All times are in EDT time to prevent confusion due to time zone crossing. See the BER6418 flight status page for this flight to view local times or setup timezone preferences in your user account.

Time Position Orientation Groundspeed Altitude Reporting Facility
EDT Latitude Longitude Course Direction KTS MPH feet Rate Location/Type
Fri 02:48:00 PM 50.5214 11.7811 24° Northeast  Level Estimated
Fri 02:49:00 PM 50.5999 11.8364 24° Northeast  Level Estimated
Fri 02:50:00 PM 50.6783 11.8919 24° Northeast  Level Estimated
Fri 02:51:00 PM 50.7568 11.9476 24° Northeast  Level Estimated
Fri 02:52:00 PM 50.8352 12.0035 24° Northeast  Level Estimated
Fri 02:53:00 PM 50.9136 12.0596 24° Northeast  Level Estimated
Fri 02:54:00 PM 50.9919 12.1159 24° Northeast  Level Estimated
Fri 02:55:00 PM 51.0703 12.1723 24° Northeast  Level Estimated
Fri 02:56:00 PM 51.1486 12.2290 24° Northeast  Level Estimated
Fri 02:57:00 PM 51.2269 12.2858 24° Northeast  Level Estimated
Fri 02:58:00 PM 51.3051 12.3428 24° Northeast  Level Estimated
Fri 02:59:00 PM 51.3833 12.4001 25° Northeast  Level Estimated
Fri 03:00:00 PM 51.4615 12.4575 25° Northeast  Level Estimated
Fri 03:01:00 PM 51.5397 12.5151 25° Northeast  Level Estimated
Fri 03:02:00 PM 51.6178 12.5730 25° Northeast  Level Estimated
Fri 03:03:00 PM 51.6959 12.6310 25° Northeast  Level Estimated
Fri 03:04:00 PM 51.7740 12.6892 25° Northeast  Level Estimated
Fri 03:05:00 PM 51.8521 12.7476 25° Northeast  Level Estimated
Fri 03:06:00 PM 51.9301 12.8062 25° Northeast  Level Estimated
Fri 03:07:00 PM 52.0081 12.8651 25° Northeast  Level Estimated
Fri 03:08:00 PM 52.0861 12.9241 25° Northeast  Level Estimated
Fri 03:09:00 PM 52.1640 12.9833 25° Northeast  Level Estimated
Fri 03:10:00 PM 52.2419 13.0428 25° Northeast  Level Estimated
Fri 03:11:00 PM 52.3198 13.1025 25° Northeast  Level Estimated
Fri 03:12:00 PM 52.3976 13.1623 25° Northeast  Level Estimated
Fri 03:13:00 PM 52.4754 13.2224 25° Northeast  Level Estimated
Fri 03:14:00 PM 52.5532 13.2827 25° Northeast  Level Estimated
Fri 03:15:00 PM 52.5597 13.2877 25° Northeast  Level Estimated
Fri 03:16:00 PM 52.5597 13.2877 171° South  Level Estimated
Fri 03:17:00 PM 52.5597 13.2877 171° South  Level Estimated
Fri 03:18:00 PM 52.5597 13.2877 171° South  Level Estimated
Fri 03:19:00 PM 52.5597 13.2877 171° South  Level Estimated
Fri 03:20:00 PM 52.5597 13.2877 171° South  Level Estimated
Fri 03:21:00 PM 52.5597 13.2877 171° South  Level Estimated
Fri 03:22:00 PM 52.5597 13.2877 171° South  Level Estimated
Fri 03:23:00 PM 52.5597 13.2877 171° South  Level Estimated
Fri 03:24:00 PM 52.5597 13.2877 171° South  Level Estimated
Fri 03:25:00 PM 52.5597 13.2877 171° South  Level Estimated

Login

Don't have an account? Register now (free) for customized features, flight alerts, and more!